createdAt,value
2022-07-30T00:03:54.629Z,100865.81
2022-07-30T00:08:53.435Z,100852.06
2022-07-30T00:13:52.310Z,100846.06
2022-07-30T00:18:51.572Z,100855.84
2022-07-30T00:24:01.336Z,100850.44
2022-07-30T00:29:00.900Z,100864.94
2022-07-30T00:34:00.918Z,100855.28
2022-07-30T00:39:01.124Z,100859.09
2022-07-30T00:44:00.358Z,100860.44
2022-07-30T00:49:00.207Z,100857.31
2022-07-30T00:54:00.452Z,100851.63
2022-07-30T00:58:59.217Z,100847.31
2022-07-30T01:03:57.989Z,100845.47
2022-07-30T01:08:56.913Z,100840.34
2022-07-30T01:13:58.665Z,100836.03
2022-07-30T01:19:17.383Z,100835.25
2022-07-30T01:24:27.207Z,100835.41
2022-07-30T01:29:29.742Z,100824.34
2022-07-30T01:34:29.909Z,100830.44
2022-07-30T01:39:30.363Z,100821.13
2022-07-30T01:44:30.839Z,100825.88
2022-07-30T01:49:31.203Z,100827.56
2022-07-30T01:54:32.909Z,100816.44
2022-07-30T01:59:36.574Z,100810.66
2022-07-30T02:04:35.682Z,100802.25
2022-07-30T02:09:39.119Z,100811.97
2022-07-30T02:14:49.081Z,100804.31
2022-07-30T02:19:52.640Z,100811.69
2022-07-30T02:24:53.561Z,100807.34
2022-07-30T02:29:57.045Z,100802.91
2022-07-30T02:35:01.493Z,100803.75
2022-07-30T02:40:01.191Z,100805.78
2022-07-30T02:45:02.465Z,100806.38
2022-07-30T02:50:03.576Z,100807.97
2022-07-30T02:55:04.212Z,100809.63
2022-07-30T03:00:07.719Z,100809.00
2022-07-30T03:05:09.085Z,100812.59
2022-07-30T03:10:08.832Z,100813.88
2022-07-30T03:15:11.241Z,100815.03
2022-07-30T03:20:12.586Z,100810.16
2022-07-30T03:25:17.942Z,100821.28
2022-07-30T03:30:18.306Z,100825.56
2022-07-30T03:35:20.407Z,100838.91
2022-07-30T03:40:20.784Z,100839.50
2022-07-30T03:45:22.129Z,100840.03
2022-07-30T03:50:22.675Z,100837.63
2022-07-30T03:55:23.743Z,100846.53
2022-07-30T04:00:24.216Z,100843.16
2022-07-30T04:05:24.866Z,100842.66
2022-07-30T04:10:24.100Z,100849.34
2022-07-30T04:16:05.024Z,100855.94
2022-07-30T04:21:17.301Z,100850.72
2022-07-30T04:26:18.992Z,100853.16
2022-07-30T04:31:19.956Z,100848.44
2022-07-30T04:36:19.409Z,100854.38
2022-07-30T04:41:18.599Z,100854.00
2022-07-30T04:46:48.203Z,100861.41
2022-07-30T04:51:48.688Z,100858.31
2022-07-30T04:56:53.460Z,100849.53
2022-07-30T05:01:58.745Z,100846.88
2022-07-30T05:06:59.377Z,100841.25
2022-07-30T05:11:59.488Z,100837.56
2022-07-30T05:17:00.136Z,100843.94
2022-07-30T05:22:04.688Z,100856.22
2022-07-30T05:27:05.561Z,100855.50
2022-07-30T05:32:07.395Z,100841.34
2022-07-30T05:37:09.818Z,100836.88
2022-07-30T05:42:12.059Z,100834.16
2022-07-30T05:47:15.977Z,100840.47
2022-07-30T05:52:16.539Z,100839.22
2022-07-30T05:57:15.847Z,100849.22
2022-07-30T06:02:16.644Z,100848.13
2022-07-30T06:07:34.922Z,100842.38
2022-07-30T06:12:35.463Z,100840.22
2022-07-30T06:17:41.230Z,100841.41
2022-07-30T06:22:48.748Z,100837.31
2022-07-30T06:27:57.977Z,100835.09
2022-07-30T06:32:58.278Z,100819.84
2022-07-30T06:38:06.329Z,100831.34
2022-07-30T06:43:15.615Z,100825.41
2022-07-30T06:48:23.648Z,100817.00
2022-07-30T06:53:24.587Z,100800.31
2022-07-30T06:58:43.738Z,100797.47
2022-07-30T07:04:18.952Z,100790.84
2022-07-30T07:09:18.248Z,100800.84
2022-07-30T07:14:24.717Z,100791.56
2022-07-30T07:20:00.389Z,100788.78
2022-07-30T07:24:44.340Z,100788.34
2022-07-30T07:30:01.581Z,100784.59
2022-07-30T07:35:07.425Z,100779.94
2022-07-30T07:40:10.691Z,100775.94
2022-07-30T07:45:15.325Z,100774.94
2022-07-30T07:50:28.173Z,100763.72
2022-07-30T07:55:33.764Z,100765.00
2022-07-30T08:00:34.437Z,100771.28
2022-07-30T08:06:00.770Z,100769.41
2022-07-30T08:11:16.948Z,100768.81
2022-07-30T08:16:34.435Z,100763.13
2022-07-30T08:21:34.681Z,100766.81
2022-07-30T08:26:34.701Z,100759.84
2022-07-30T08:31:33.494Z,100759.28
2022-07-30T08:36:32.578Z,100760.28
2022-07-30T08:41:33.225Z,100752.84
2022-07-30T08:46:33.362Z,100741.41
2022-07-30T08:51:43.469Z,100743.38
2022-07-30T08:57:11.044Z,100734.19
2022-07-30T09:02:13.092Z,100727.28
2022-07-30T09:07:27.354Z,100714.84
2022-07-30T09:12:37.555Z,100711.66
2022-07-30T09:17:52.333Z,100711.38
2022-07-30T09:22:53.657Z,100689.66
2022-07-30T09:28:17.547Z,100684.75
2022-07-30T09:33:41.249Z,100670.97
2022-07-30T09:39:02.790Z,100652.72
2022-07-30T09:44:27.032Z,100656.28
2022-07-30T09:49:30.561Z,100659.31
2022-07-30T09:54:51.225Z,100649.97
2022-07-30T09:59:55.053Z,100652.75
2022-07-30T10:04:54.152Z,100644.25
2022-07-30T10:09:54.333Z,100644.78
2022-07-30T10:14:56.335Z,100625.06
2022-07-30T10:19:55.927Z,100620.88
2022-07-30T10:25:33.309Z,100608.16
2022-07-30T10:30:56.163Z,100613.47
2022-07-30T10:35:55.162Z,100602.34
2022-07-30T10:41:01.738Z,100589.88
2022-07-30T10:46:19.915Z,100592.88
2022-07-30T10:51:25.596Z,100583.25
2022-07-30T10:56:33.450Z,100576.47
2022-07-30T11:02:11.017Z,100567.91
2022-07-30T11:07:31.727Z,100572.06
2022-07-30T11:13:00.335Z,100558.34
2022-07-30T11:18:13.139Z,100552.72
2022-07-30T11:23:42.992Z,100557.91
2022-07-30T11:28:44.827Z,100548.41
2022-07-30T11:33:45.010Z,100558.06
2022-07-30T11:38:55.683Z,100536.97
2022-07-30T11:44:30.083Z,100523.41
2022-07-30T11:49:36.611Z,100512.31
2022-07-30T11:54:35.361Z,100515.09
2022-07-30T11:59:53.576Z,100508.19
2022-07-30T12:04:55.599Z,100492.78
2022-07-30T12:09:54.386Z,100477.22
2022-07-30T12:14:57.909Z,100471.09
2022-07-30T12:20:00.411Z,100456.69
2022-07-30T12:25:07.270Z,100443.34
2022-07-30T12:30:09.073Z,100448.66
2022-07-30T12:35:10.360Z,100441.22
2022-07-30T12:40:15.003Z,100431.28
2022-07-30T12:45:27.579Z,100413.19
2022-07-30T12:50:28.371Z,100407.16
2022-07-30T12:55:32.402Z,100386.19
2022-07-30T13:00:36.211Z,100379.66
2022-07-30T13:05:49.934Z,100368.63
2022-07-30T13:10:59.903Z,100363.72
2022-07-30T13:16:00.851Z,100351.94
2022-07-30T13:21:02.128Z,100335.69
2022-07-30T13:26:00.956Z,100332.00
2022-07-30T13:30:59.848Z,100330.66
2022-07-30T13:35:59.305Z,100324.78
2022-07-30T13:41:02.734Z,100315.28
2022-07-30T13:46:03.072Z,100311.16
2022-07-30T13:51:05.169Z,100291.13
2022-07-30T13:56:05.775Z,100295.94
2022-07-30T14:01:17.247Z,100297.44
2022-07-30T14:06:16.889Z,100291.34
2022-07-30T14:11:17.974Z,100286.56
2022-07-30T14:16:42.392Z,100284.13
2022-07-30T14:21:35.822Z,100266.94
2022-07-30T14:26:36.711Z,100268.34
2022-07-30T14:31:35.951Z,100264.13
2022-07-30T14:36:34.844Z,100267.78
2022-07-30T14:41:35.163Z,100255.19
2022-07-30T14:46:34.372Z,100252.91
2022-07-30T14:51:34.809Z,100238.94
2022-07-30T14:56:35.139Z,100246.78
2022-07-30T15:01:34.029Z,100235.50
2022-07-30T15:06:32.850Z,100245.38
2022-07-30T15:11:45.023Z,100234.19
2022-07-30T15:16:51.912Z,100231.00
2022-07-30T15:21:50.668Z,100231.56
2022-07-30T15:26:49.556Z,100233.50
2022-07-30T15:31:48.334Z,100241.97
2022-07-30T15:36:48.616Z,100240.28
2022-07-30T15:41:47.372Z,100238.19
2022-07-30T15:46:46.137Z,100232.00
2022-07-30T15:51:48.744Z,100240.41
2022-07-30T15:56:49.021Z,100230.97
2022-07-30T16:01:47.870Z,100235.28
2022-07-30T16:06:46.724Z,100231.16
2022-07-30T16:11:45.583Z,100225.06
2022-07-30T16:16:47.290Z,100239.66
2022-07-30T16:21:46.054Z,100260.00
2022-07-30T16:26:44.963Z,100255.56
2022-07-30T16:31:43.989Z,100268.09
2022-07-30T16:36:44.079Z,100276.03
2022-07-30T16:41:43.092Z,100273.13
2022-07-30T16:46:42.061Z,100265.63
2022-07-30T16:51:40.990Z,100272.47
2022-07-30T16:56:41.188Z,100269.50
2022-07-30T17:01:40.068Z,100273.78
2022-07-30T17:06:40.126Z,100276.91
2022-07-30T17:11:46.455Z,100294.56
2022-07-30T17:16:46.809Z,100299.47
2022-07-30T17:21:45.590Z,100301.47
2022-07-30T17:26:46.837Z,100304.25
2022-07-30T17:31:48.402Z,100303.19
2022-07-30T17:36:52.535Z,100309.69
2022-07-30T17:41:58.181Z,100312.25
2022-07-30T17:47:01.784Z,100326.34
2022-07-30T17:52:02.108Z,100332.75
2022-07-30T17:57:02.653Z,100340.66
2022-07-30T18:02:01.812Z,100346.56
2022-07-30T18:07:00.872Z,100355.22
2022-07-30T18:11:59.991Z,100358.69
2022-07-30T18:17:02.907Z,100360.22
2022-07-30T18:22:02.167Z,100359.47
2022-07-30T18:27:03.166Z,100361.63
2022-07-30T18:32:04.134Z,100357.22
2022-07-30T18:37:03.435Z,100359.81
2022-07-30T18:42:03.725Z,100358.06
2022-07-30T18:47:04.534Z,100355.91
2022-07-30T18:52:03.450Z,100356.59
2022-07-30T18:57:02.420Z,100361.56
2022-07-30T19:02:01.665Z,100355.22
2022-07-30T19:07:02.224Z,100358.78
2022-07-30T19:12:01.297Z,100349.66
2022-07-30T19:17:00.220Z,100352.06
2022-07-30T19:21:59.501Z,100360.78
2022-07-30T19:26:59.756Z,100360.34
2022-07-30T19:31:58.571Z,100369.44
2022-07-30T19:36:57.310Z,100363.06
2022-07-30T19:41:56.109Z,100366.06
2022-07-30T19:46:57.737Z,100371.00
2022-07-30T19:52:10.022Z,100389.75
2022-07-30T19:57:17.804Z,100480.25
2022-07-30T20:02:22.549Z,100483.38
2022-07-30T20:07:21.527Z,100501.38
2022-07-30T20:12:20.459Z,100511.19
2022-07-30T20:17:24.795Z,100506.69
2022-07-30T20:22:26.408Z,100512.63
2022-07-30T20:27:37.407Z,100490.47
2022-07-30T20:32:46.443Z,100485.09
2022-07-30T20:37:54.657Z,100491.41
2022-07-30T20:42:54.831Z,100487.31
2022-07-30T20:47:56.837Z,100490.03
2022-07-30T20:52:56.561Z,100503.59
2022-07-30T20:58:09.948Z,100498.34
2022-07-30T21:03:16.239Z,100520.06
2022-07-30T21:08:15.817Z,100540.53
2022-07-30T21:13:16.086Z,100541.84
2022-07-30T21:18:16.585Z,100549.75
2022-07-30T21:23:20.747Z,100586.25
2022-07-30T21:28:27.652Z,100577.09
2022-07-30T21:33:31.278Z,100571.84
2022-07-30T21:38:31.976Z,100575.72
2022-07-30T21:43:33.628Z,100574.66
2022-07-30T21:48:33.905Z,100572.78
2022-07-30T21:53:44.891Z,100590.97
2022-07-30T21:58:45.986Z,100587.63
2022-07-30T22:04:04.502Z,100596.13
2022-07-30T22:09:19.480Z,100580.41
2022-07-30T22:14:27.873Z,100580.25
2022-07-30T22:19:28.367Z,100574.25
2022-07-30T22:24:29.349Z,100570.91
2022-07-30T22:29:34.024Z,100545.56
2022-07-30T22:34:34.822Z,100552.09
2022-07-30T22:39:51.726Z,100544.63
2022-07-30T22:44:52.692Z,100540.44
2022-07-30T22:49:56.057Z,100535.81
2022-07-30T22:54:55.557Z,100543.34
2022-07-30T22:59:59.927Z,100547.94
2022-07-30T23:05:01.026Z,100543.09
2022-07-30T23:10:02.190Z,100547.91
2022-07-30T23:15:01.066Z,100547.97
2022-07-30T23:20:01.261Z,100562.66
2022-07-30T23:25:00.006Z,100546.13
2022-07-30T23:29:58.751Z,100547.56
2022-07-30T23:34:57.584Z,100550.56
2022-07-30T23:39:59.432Z,100549.78
2022-07-30T23:44:58.236Z,100555.59
2022-07-30T23:49:57.159Z,100558.16
2022-07-30T23:54:57.246Z,100549.88
2022-07-30T23:59:56.138Z,100556.69
